createdAt,value
2022-11-10T00:01:34.582Z,98309.27
2022-11-10T00:04:56.476Z,98308.80
2022-11-10T00:08:18.241Z,98308.64
2022-11-10T00:11:40.150Z,98306.05
2022-11-10T00:15:20.386Z,98308.95
2022-11-10T00:18:42.282Z,98316.02
2022-11-10T00:22:03.918Z,98307.77
2022-11-10T00:25:26.727Z,98310.60
2022-11-10T00:28:48.001Z,98315.39
2022-11-10T00:32:09.941Z,98309.19
2022-11-10T00:35:31.693Z,98313.90
2022-11-10T00:38:53.134Z,98315.63
2022-11-10T00:42:15.067Z,98316.16
2022-11-10T00:45:36.505Z,98313.98
2022-11-10T00:48:58.380Z,98315.61
2022-11-10T00:52:20.299Z,98311.92
2022-11-10T00:55:42.692Z,98316.09
2022-11-10T00:59:04.577Z,98321.02
2022-11-10T01:02:26.453Z,98324.09
2022-11-10T01:05:48.161Z,98335.56
2022-11-10T01:09:09.729Z,98347.18
2022-11-10T01:12:31.890Z,98348.35
2022-11-10T01:15:53.615Z,98353.38
2022-11-10T01:19:15.325Z,98354.63
2022-11-10T01:22:36.953Z,98352.83
2022-11-10T01:26:00.373Z,98358.48
2022-11-10T01:29:22.174Z,98353.38
2022-11-10T01:32:44.082Z,98356.19
2022-11-10T01:36:07.044Z,98358.95
2022-11-10T01:39:28.406Z,98365.45
2022-11-10T01:42:56.646Z,98356.42
2022-11-10T01:46:18.170Z,98357.91
2022-11-10T01:49:39.840Z,98355.80
2022-11-10T01:53:05.097Z,98362.63
2022-11-10T01:56:29.978Z,98363.41
2022-11-10T01:59:51.502Z,98366.86
2022-11-10T02:03:24.175Z,98368.04
2022-11-10T02:06:48.487Z,98370.31
2022-11-10T02:10:16.757Z,98376.90
2022-11-10T02:13:38.478Z,98386.02
2022-11-10T02:17:00.726Z,98382.71
2022-11-10T02:20:22.462Z,98382.32
2022-11-10T02:23:50.674Z,98389.15
2022-11-10T02:27:11.943Z,98393.70
2022-11-10T02:30:33.209Z,98394.39
2022-11-10T02:33:54.968Z,98386.23
2022-11-10T02:37:17.234Z,98387.34
2022-11-10T02:40:38.710Z,98396.20
2022-11-10T02:44:00.915Z,98401.07
2022-11-10T02:47:23.619Z,98398.88
2022-11-10T02:50:45.405Z,98396.13
2022-11-10T02:54:07.265Z,98390.00
2022-11-10T02:57:28.964Z,98389.15
2022-11-10T03:00:50.586Z,98390.02
2022-11-10T03:04:12.186Z,98396.85
2022-11-10T03:07:34.122Z,98397.94
2022-11-10T03:10:56.756Z,98399.77
2022-11-10T03:14:18.550Z,98414.36
2022-11-10T03:17:41.041Z,98409.58
2022-11-10T03:21:02.802Z,98412.71
2022-11-10T03:24:24.736Z,98409.34
2022-11-10T03:27:46.630Z,98410.66
2022-11-10T03:31:08.504Z,98419.23
2022-11-10T03:34:31.953Z,98418.91
2022-11-10T03:37:54.025Z,98423.25
2022-11-10T03:41:20.087Z,98426.54
2022-11-10T03:44:42.447Z,98421.04
2022-11-10T03:48:04.034Z,98431.17
2022-11-10T03:51:25.688Z,98432.03
2022-11-10T03:54:47.148Z,98441.53
2022-11-10T03:58:08.782Z,98437.52
2022-11-10T04:01:30.585Z,98439.49
2022-11-10T04:05:11.128Z,98443.02
2022-11-10T04:08:51.061Z,98447.82
2022-11-10T04:12:31.095Z,98449.94
2022-11-10T04:15:52.705Z,98450.73
2022-11-10T04:19:14.511Z,98455.98
2022-11-10T04:22:54.361Z,98458.49
2022-11-10T04:26:32.783Z,98467.70
2022-11-10T04:29:54.134Z,98473.98
2022-11-10T04:33:15.673Z,98473.52
2022-11-10T04:36:38.856Z,98473.52
2022-11-10T04:40:00.428Z,98479.80
2022-11-10T04:43:22.521Z,98482.79
2022-11-10T04:46:44.655Z,98485.20
2022-11-10T04:50:06.887Z,98480.66
2022-11-10T04:53:28.761Z,98492.77
2022-11-10T04:56:50.320Z,98498.02
2022-11-10T05:00:12.984Z,98498.11
2022-11-10T05:03:34.485Z,98501.11
2022-11-10T05:06:56.239Z,98507.62
2022-11-10T05:10:18.028Z,98503.70
2022-11-10T05:13:40.056Z,98510.30
2022-11-10T05:17:01.660Z,98510.30
2022-11-10T05:20:25.454Z,98513.35
2022-11-10T05:23:46.750Z,98515.94
2022-11-10T05:27:08.546Z,98519.55
2022-11-10T05:30:30.193Z,98522.69
2022-11-10T05:33:51.629Z,98527.41
2022-11-10T05:37:13.382Z,98532.91
2022-11-10T05:40:35.399Z,98540.21
2022-11-10T05:43:56.884Z,98540.84
2022-11-10T05:47:18.262Z,98540.91
2022-11-10T05:50:40.196Z,98547.27
2022-11-10T05:54:02.025Z,98553.16
2022-11-10T05:57:23.839Z,98560.39
2022-11-10T06:00:45.499Z,98564.70
2022-11-10T06:04:07.058Z,98575.31
2022-11-10T06:07:28.641Z,98583.55
2022-11-10T06:10:50.421Z,98588.71
2022-11-10T06:14:12.167Z,98597.90
2022-11-10T06:17:34.125Z,98599.39
2022-11-10T06:20:55.758Z,98607.80
2022-11-10T06:24:17.730Z,98613.29
2022-11-10T06:27:43.337Z,98615.25
2022-11-10T06:31:05.218Z,98614.86
2022-11-10T06:34:27.374Z,98619.48
2022-11-10T06:38:06.562Z,98628.52
2022-11-10T06:41:28.253Z,98639.36
2022-11-10T06:44:49.910Z,98642.33
2022-11-10T06:48:14.147Z,98645.31
2022-11-10T06:51:37.106Z,98650.04
2022-11-10T06:54:59.309Z,98652.63
2022-11-10T06:58:20.747Z,98656.64
2022-11-10T07:01:42.324Z,98657.98
2022-11-10T07:05:04.532Z,98665.05
2022-11-10T07:08:26.112Z,98670.55
2022-11-10T07:11:47.848Z,98672.92
2022-11-10T07:15:10.083Z,98666.09
2022-11-10T07:18:31.834Z,98662.23
2022-11-10T07:21:53.673Z,98692.01
2022-11-10T07:25:15.563Z,98705.45
2022-11-10T07:28:37.417Z,98717.85
2022-11-10T07:31:59.585Z,98718.71
2022-11-10T07:35:21.033Z,98722.96
2022-11-10T07:38:42.705Z,98726.59
2022-11-10T07:42:04.455Z,98730.38
2022-11-10T07:45:27.434Z,98736.12
2022-11-10T07:48:49.208Z,98733.86
2022-11-10T07:52:11.084Z,98730.55
2022-11-10T07:55:33.770Z,98738.90
2022-11-10T07:58:55.809Z,98745.52
2022-11-10T08:02:17.460Z,98747.10
2022-11-10T08:05:40.208Z,98749.95
2022-11-10T08:09:03.712Z,98757.67
2022-11-10T08:12:29.927Z,98769.41
2022-11-10T08:15:54.388Z,98774.27
2022-11-10T08:19:15.738Z,98780.49
2022-11-10T08:22:37.141Z,98784.98
2022-11-10T08:26:01.032Z,98796.45
2022-11-10T08:29:22.799Z,98792.13
2022-11-10T08:32:44.498Z,98799.14
2022-11-10T08:36:06.576Z,98799.91
2022-11-10T08:39:38.663Z,98803.44
2022-11-10T08:43:01.823Z,98802.82
2022-11-10T08:46:23.464Z,98807.45
2022-11-10T08:49:44.962Z,98817.59
2022-11-10T08:53:10.526Z,98817.23
2022-11-10T08:56:32.228Z,98816.92
2022-11-10T08:59:53.815Z,98823.77
2022-11-10T09:03:18.768Z,98831.09
2022-11-10T09:06:40.602Z,98834.16
2022-11-10T09:10:07.883Z,98841.89
2022-11-10T09:13:31.250Z,98846.30
2022-11-10T09:16:53.018Z,98850.09
2022-11-10T09:20:15.250Z,98849.85
2022-11-10T09:23:36.836Z,98858.37
2022-11-10T09:26:58.501Z,98859.09
2022-11-10T09:30:20.300Z,98860.20
2022-11-10T09:33:41.872Z,98866.30
2022-11-10T09:37:03.899Z,98867.84
2022-11-10T09:40:48.868Z,98872.02
2022-11-10T09:44:25.047Z,98880.41
2022-11-10T09:47:58.385Z,98881.85
2022-11-10T09:51:35.189Z,98888.55
2022-11-10T09:55:04.524Z,98893.52
2022-11-10T09:58:33.625Z,98899.19
2022-11-10T10:01:58.190Z,98900.14
2022-11-10T10:05:35.229Z,98903.70
2022-11-10T10:09:44.692Z,98905.91
2022-11-10T10:13:06.416Z,98909.66
2022-11-10T10:16:43.067Z,98914.23
2022-11-10T10:20:20.014Z,98910.41
2022-11-10T10:27:34.947Z,98923.08
2022-11-10T10:31:15.304Z,98922.58
2022-11-10T10:34:37.127Z,98923.74
2022-11-10T10:38:00.980Z,98930.73
2022-11-10T10:41:27.433Z,98932.56
2022-11-10T10:45:13.660Z,98932.75
2022-11-10T10:48:38.606Z,98928.20
2022-11-10T10:52:14.328Z,98937.88
2022-11-10T10:55:37.219Z,98937.48
2022-11-10T10:59:04.884Z,98944.72
2022-11-10T11:02:34.207Z,98936.40
2022-11-10T11:06:21.291Z,98939.11
2022-11-10T11:09:44.565Z,98939.38
2022-11-10T11:13:16.135Z,98939.48
2022-11-10T11:16:49.859Z,98943.91
2022-11-10T11:20:15.449Z,98948.41
2022-11-10T11:24:01.635Z,98952.43
2022-11-10T11:27:57.070Z,98951.57
2022-11-10T11:31:24.720Z,98950.23
2022-11-10T11:34:49.358Z,98954.23
2022-11-10T11:38:15.437Z,98951.58
2022-11-10T11:42:18.514Z,98951.58
2022-11-10T11:46:31.111Z,98954.64
2022-11-10T11:50:01.548Z,98959.22
2022-11-10T11:54:04.481Z,98956.88
2022-11-10T11:57:41.053Z,98959.98
2022-11-10T12:01:11.856Z,98954.95
2022-11-10T12:05:03.956Z,98956.39
2022-11-10T12:08:42.950Z,98953.58
2022-11-10T12:12:17.173Z,98953.83
2022-11-10T12:15:43.330Z,98962.43
2022-11-10T12:19:23.702Z,98962.51
2022-11-10T12:23:13.217Z,98961.09
2022-11-10T12:26:43.526Z,98968.48
2022-11-10T12:30:11.824Z,98976.38
2022-11-10T12:33:45.676Z,98978.51
2022-11-10T12:37:18.058Z,98985.05
2022-11-10T12:40:48.659Z,98983.71
2022-11-10T12:44:31.152Z,98986.21
2022-11-10T12:47:55.353Z,98992.59
2022-11-10T12:51:48.011Z,98997.23
2022-11-10T12:55:21.347Z,98993.59
2022-11-10T12:58:43.202Z,98991.48
2022-11-10T13:02:25.140Z,98998.42
2022-11-10T13:05:55.768Z,99000.32
2022-11-10T13:09:31.283Z,99000.33
2022-11-10T13:13:05.295Z,99007.89
2022-11-10T13:16:54.529Z,99018.36
2022-11-10T13:20:46.416Z,99018.66
2022-11-10T13:24:19.802Z,99023.86
2022-11-10T13:27:41.561Z,99019.98
2022-11-10T13:31:28.701Z,99028.55
2022-11-10T13:34:50.519Z,99030.20
2022-11-10T13:38:38.152Z,99031.30
2022-11-10T13:42:03.120Z,99041.94
2022-11-10T13:45:44.782Z,99043.65
2022-11-10T13:49:25.052Z,99050.66
2022-11-10T13:52:59.130Z,99058.82
2022-11-10T13:56:50.038Z,99061.02
2022-11-10T14:00:14.793Z,99069.65
2022-11-10T14:03:45.600Z,99072.23
2022-11-10T14:07:17.690Z,99076.95
2022-11-10T14:11:11.498Z,99076.94
2022-11-10T14:14:51.527Z,99080.54
2022-11-10T14:18:25.118Z,99084.55
2022-11-10T14:22:03.618Z,99090.85
2022-11-10T14:25:40.002Z,99098.55
2022-11-10T14:29:32.392Z,99107.58
2022-11-10T14:33:06.619Z,99106.70
2022-11-10T14:36:28.142Z,99111.80
2022-11-10T14:40:15.572Z,99117.70
2022-11-10T14:43:39.613Z,99125.23
2022-11-10T14:47:24.581Z,99123.98
2022-11-10T14:50:46.991Z,99121.58
2022-11-10T14:54:12.707Z,99124.16
2022-11-10T14:57:34.674Z,99126.73
2022-11-10T15:00:56.252Z,99137.29
2022-11-10T15:04:18.365Z,99141.82
2022-11-10T15:07:40.773Z,99139.59
2022-11-10T15:11:02.415Z,99138.23
2022-11-10T15:14:46.952Z,99145.37
2022-11-10T15:18:30.152Z,99150.39
2022-11-10T15:21:52.222Z,99159.43
2022-11-10T15:25:18.388Z,99159.58
2022-11-10T15:28:42.363Z,99164.52
2022-11-10T15:32:07.120Z,99165.84
2022-11-10T15:35:32.328Z,99168.83
2022-11-10T15:39:15.616Z,99174.17
2022-11-10T15:42:37.387Z,99179.10
2022-11-10T15:46:03.403Z,99184.91
2022-11-10T15:49:33.905Z,99190.15
2022-11-10T15:52:56.317Z,99194.23
2022-11-10T15:56:23.644Z,99205.70
2022-11-10T15:59:45.704Z,99210.92
2022-11-10T16:03:10.787Z,99215.60
2022-11-10T16:06:32.845Z,99217.75
2022-11-10T16:09:54.453Z,99219.27
2022-11-10T16:13:24.135Z,99229.83
2022-11-10T16:16:46.420Z,99231.02
2022-11-10T16:20:14.621Z,99228.98
2022-11-10T16:23:36.087Z,99234.12
2022-11-10T16:26:58.116Z,99238.86
2022-11-10T16:30:19.766Z,99244.38
2022-11-10T16:33:41.655Z,99251.50
2022-11-10T16:37:03.471Z,99258.21
2022-11-10T16:40:25.154Z,99261.55
2022-11-10T16:43:46.870Z,99269.16
2022-11-10T16:47:18.555Z,99275.26
2022-11-10T16:50:40.189Z,99293.86
2022-11-10T16:54:01.757Z,99296.98
2022-11-10T16:57:23.847Z,99309.05
2022-11-10T17:00:48.258Z,99326.03
2022-11-10T17:04:13.980Z,99324.77
2022-11-10T17:07:36.073Z,99324.23
2022-11-10T17:10:58.429Z,99326.98
2022-11-10T17:14:20.637Z,99330.94
2022-11-10T17:17:45.578Z,99340.14
2022-11-10T17:21:07.662Z,99350.27
2022-11-10T17:24:29.730Z,99353.13
2022-11-10T17:27:51.874Z,99355.12
2022-11-10T17:31:14.565Z,99358.85
2022-11-10T17:34:36.303Z,99362.35
2022-11-10T17:37:59.611Z,99362.88
2022-11-10T17:41:21.905Z,99365.06
2022-11-10T17:44:44.493Z,99366.91
2022-11-10T17:48:08.085Z,99373.60
2022-11-10T17:51:32.864Z,99371.06
2022-11-10T17:54:54.530Z,99379.95
2022-11-10T17:58:17.153Z,99383.25
2022-11-10T18:01:38.847Z,99387.23
2022-11-10T18:05:00.471Z,99387.44
2022-11-10T18:08:22.275Z,99388.52
2022-11-10T18:11:43.915Z,99387.39
2022-11-10T18:15:05.647Z,99391.23
2022-11-10T18:18:59.497Z,99386.89
2022-11-10T18:22:44.518Z,99385.63
2022-11-10T18:26:11.445Z,99384.52
2022-11-10T18:29:32.914Z,99386.79
2022-11-10T18:32:54.603Z,99387.73
2022-11-10T18:36:16.585Z,99384.56
2022-11-10T18:39:38.454Z,99387.98
2022-11-10T18:43:05.939Z,99394.79
2022-11-10T18:46:28.787Z,99395.37
2022-11-10T18:49:50.344Z,99398.16
2022-11-10T18:53:12.001Z,99402.05
2022-11-10T18:56:33.609Z,99405.40
2022-11-10T18:59:55.634Z,99402.36
2022-11-10T19:03:17.060Z,99414.90
2022-11-10T19:06:39.032Z,99421.84
2022-11-10T19:10:01.254Z,99414.33
2022-11-10T19:13:24.206Z,99416.59
2022-11-10T19:16:49.309Z,99421.89
2022-11-10T19:20:12.946Z,99434.17
2022-11-10T19:23:34.833Z,99440.81
2022-11-10T19:26:56.728Z,99446.10
2022-11-10T19:30:18.534Z,99442.84
2022-11-10T19:33:42.586Z,99449.23
2022-11-10T19:37:04.295Z,99456.12
2022-11-10T19:40:25.901Z,99457.61
2022-11-10T19:43:47.927Z,99467.61
2022-11-10T19:47:09.751Z,99472.76
2022-11-10T19:50:31.038Z,99477.05
2022-11-10T19:53:58.999Z,99481.44
2022-11-10T19:57:20.609Z,99490.80
2022-11-10T20:00:47.745Z,99490.80
2022-11-10T20:04:10.006Z,99499.29
2022-11-10T20:07:49.907Z,99500.58
2022-11-10T20:11:26.064Z,99504.52
2022-11-10T20:14:47.816Z,99509.59
2022-11-10T20:18:10.891Z,99516.05
2022-11-10T20:21:32.204Z,99519.71
2022-11-10T20:24:53.870Z,99511.05
2022-11-10T20:28:15.688Z,99503.98
2022-11-10T20:31:38.575Z,99506.64
2022-11-10T20:35:00.697Z,99511.91
2022-11-10T20:38:22.301Z,99510.98
2022-11-10T20:41:44.389Z,99505.25
2022-11-10T20:45:06.602Z,99506.66
2022-11-10T20:48:32.904Z,99510.05
2022-11-10T20:52:01.432Z,99515.66
2022-11-10T20:55:51.578Z,99517.22
2022-11-10T20:59:04.561Z,99518.29
2022-11-10T21:02:26.723Z,99513.85
2022-11-10T21:05:54.675Z,99508.65
2022-11-10T21:09:16.464Z,99514.05
2022-11-10T21:12:49.976Z,99515.61
2022-11-10T21:16:11.518Z,99517.18
2022-11-10T21:19:34.960Z,99516.27
2022-11-10T21:23:02.034Z,99513.96
2022-11-10T21:26:24.916Z,99517.10
2022-11-10T21:29:46.719Z,99520.23
2022-11-10T21:33:09.369Z,99526.89
2022-11-10T21:36:31.677Z,99529.77
2022-11-10T21:39:53.492Z,99531.88
2022-11-10T21:43:15.153Z,99528.35
2022-11-10T21:46:37.009Z,99531.70
2022-11-10T21:49:59.576Z,99524.08
2022-11-10T21:53:21.766Z,99518.19
2022-11-10T21:56:43.717Z,99526.20
2022-11-10T22:00:05.796Z,99527.61
2022-11-10T22:03:28.864Z,99531.27
2022-11-10T22:07:08.878Z,99527.89
2022-11-10T22:10:49.370Z,99530.11
2022-11-10T22:14:34.800Z,99528.13
2022-11-10T22:18:14.849Z,99538.14
2022-11-10T22:21:37.046Z,99535.52
2022-11-10T22:24:58.626Z,99546.40
2022-11-10T22:28:20.439Z,99544.56
2022-11-10T22:31:42.430Z,99543.35
2022-11-10T22:35:04.080Z,99533.97
2022-11-10T22:38:26.404Z,99528.95
2022-11-10T22:42:06.808Z,99520.53
2022-11-10T22:45:28.992Z,99518.20
2022-11-10T22:48:50.751Z,99514.95
2022-11-10T22:52:12.317Z,99514.16
2022-11-10T22:55:33.986Z,99513.46
2022-11-10T22:58:59.839Z,99517.51
2022-11-10T23:02:21.900Z,99520.25
2022-11-10T23:05:43.527Z,99524.31
2022-11-10T23:09:05.444Z,99522.23
2022-11-10T23:12:26.932Z,99522.48
2022-11-10T23:15:52.147Z,99526.93
2022-11-10T23:19:13.734Z,99531.80
2022-11-10T23:22:35.510Z,99537.27
2022-11-10T23:26:07.775Z,99540.53
2022-11-10T23:29:29.645Z,99547.13
2022-11-10T23:32:51.365Z,99545.50
2022-11-10T23:36:14.673Z,99545.82
2022-11-10T23:39:36.339Z,99549.05
2022-11-10T23:42:57.939Z,99553.42
2022-11-10T23:46:19.474Z,99560.16
2022-11-10T23:49:41.069Z,99554.51
2022-11-10T23:53:02.700Z,99556.95
2022-11-10T23:56:24.347Z,99561.75
2022-11-10T23:59:46.088Z,99567.48
